Time;durP1;ratioP1;P1;durP2;ratioP2;P2;SDS_P1;SDS_P2;PMS_P1;PMS_P2;Temp;Humidity;BMP_temperature;BMP_pressure;BME280_temperature;BME280_humidity;BME280_pressure;Samples;Min_cycle;Max_cycle;Signal;HPM_P1;HPM_P2
2022/02/15 00:01:28;;;;;;;26.92;16.85;;;;;;;;;;5003408;28;20054;-51
2022/02/15 00:03:56;;;;;;;39.78;23.35;;;;;;;;;;5006420;28;20026;-52
2022/02/15 00:06:22;;;;;;;43.45;23.55;;;;;;;;;;4998694;28;20034;-52
2022/02/15 00:08:48;;;;;;;41.58;21.50;;;;;;;;;;5009553;28;20066;-52
2022/02/15 00:11:14;;;;;;;42.08;22.67;;;;;;;;;;5001353;28;20482;-52
2022/02/15 00:13:40;;;;;;;60.92;26.48;;;;;;;;;;5001449;28;20442;-51
2022/02/15 00:16:06;;;;;;;48.08;26.50;;;;;;;;;;5005927;28;20065;-53
2022/02/15 00:18:32;;;;;;;49.72;29.20;;;;;;;;;;5005316;28;20034;-51
2022/02/15 00:21:01;;;;;;;42.13;24.17;;;;;;;;;;4998841;28;20366;-50
2022/02/15 00:23:28;;;;;;;36.53;19.83;;;;;;;;;;5006650;28;20366;-55
2022/02/15 00:25:54;;;;;;;34.33;19.40;;;;;;;;;;4999806;28;20056;-54
2022/02/15 00:28:20;;;;;;;61.83;35.53;;;;;;;;;;4997912;28;20034;-51
2022/02/15 00:30:46;;;;;;;42.40;27.25;;;;;;;;;;5007865;28;20022;-52
2022/02/15 00:33:12;;;;;;;34.40;20.75;;;;;;;;;;4997800;28;20027;-52
2022/02/15 00:35:38;;;;;;;55.00;32.03;;;;;;;;;;4999744;28;20047;-50
2022/02/15 00:38:04;;;;;;;35.63;18.83;;;;;;;;;;4995394;28;20105;-49
2022/02/15 00:40:30;;;;;;;40.47;25.42;;;;;;;;;;4995479;28;20058;-49
2022/02/15 00:42:56;;;;;;;53.10;30.80;;;;;;;;;;4995339;28;20030;-49
2022/02/15 00:45:22;;;;;;;49.83;28.33;;;;;;;;;;4995191;28;20022;-47
2022/02/15 00:47:48;;;;;;;39.17;22.73;;;;;;;;;;4995265;28;20042;-47
2022/02/15 00:50:15;;;;;;;42.47;23.90;;;;;;;;;;4995381;28;20030;-51
2022/02/15 00:52:41;;;;;;;38.42;24.27;;;;;;;;;;4995209;28;20038;-48
2022/02/15 00:55:12;;;;;;;36.58;22.70;;;;;;;;;;4995030;28;20038;-49
2022/02/15 00:57:39;;;;;;;42.15;24.83;;;;;;;;;;4995142;28;20166;-49
2022/02/15 01:00:05;;;;;;;37.58;20.13;;;;;;;;;;4994818;28;20037;-50
2022/02/15 01:02:31;;;;;;;40.42;24.35;;;;;;;;;;4994205;28;20030;-51
2022/02/15 01:04:58;;;;;;;46.03;27.95;;;;;;;;;;4994749;28;20023;-51
2022/02/15 01:07:24;;;;;;;40.22;24.63;;;;;;;;;;4994689;28;20044;-51
2022/02/15 01:09:50;;;;;;;47.05;24.45;;;;;;;;;;4995648;28;20451;-51
2022/02/15 01:12:16;;;;;;;47.70;24.70;;;;;;;;;;4994842;28;20034;-51
2022/02/15 01:14:42;;;;;;;40.53;22.60;;;;;;;;;;4994878;28;20022;-51
2022/02/15 01:17:08;;;;;;;44.33;26.73;;;;;;;;;;4994851;28;20459;-50
2022/02/15 01:19:34;;;;;;;44.15;26.15;;;;;;;;;;4994742;28;20023;-50
2022/02/15 01:22:00;;;;;;;44.63;25.77;;;;;;;;;;4994571;28;20030;-51
2022/02/15 01:24:27;;;;;;;51.30;27.75;;;;;;;;;;4994419;28;20109;-52
2022/02/15 01:26:53;;;;;;;47.13;26.60;;;;;;;;;;4994808;28;20439;-52
2022/02/15 01:29:19;;;;;;;43.28;24.38;;;;;;;;;;4994304;28;20470;-51
2022/02/15 01:31:45;;;;;;;44.60;23.63;;;;;;;;;;4994284;28;20022;-49
2022/02/15 01:34:11;;;;;;;51.13;25.45;;;;;;;;;;4994306;28;20053;-51
2022/02/15 01:36:38;;;;;;;56.78;27.90;;;;;;;;;;5013397;28;20184;-50
2022/02/15 01:39:04;;;;;;;46.03;24.25;;;;;;;;;;5013952;28;20101;-51
2022/02/15 01:41:30;;;;;;;39.97;23.30;;;;;;;;;;5014186;28;20021;-52
2022/02/15 01:43:56;;;;;;;40.08;22.20;;;;;;;;;;5013820;28;20026;-51
2022/02/15 01:46:22;;;;;;;35.47;22.88;;;;;;;;;;5013643;28;20450;-55
2022/02/15 01:48:48;;;;;;;38.53;22.85;;;;;;;;;;5013868;28;20038;-53
2022/02/15 01:51:15;;;;;;;38.50;23.55;;;;;;;;;;5013746;28;20049;-51
2022/02/15 01:53:41;;;;;;;38.30;23.17;;;;;;;;;;5013504;28;20022;-49
2022/02/15 01:56:08;;;;;;;36.35;21.23;;;;;;;;;;5013792;28;20382;-52
2022/02/15 01:58:35;;;;;;;40.25;23.38;;;;;;;;;;5013798;28;20029;-51
2022/02/15 02:01:01;;;;;;;38.80;23.05;;;;;;;;;;4995838;28;20038;-50
2022/02/15 02:03:27;;;;;;;40.30;23.10;;;;;;;;;;5013343;28;20021;-51
2022/02/15 02:05:54;;;;;;;41.30;24.65;;;;;;;;;;5013692;28;20026;-50
2022/02/15 02:08:22;;;;;;;38.22;22.83;;;;;;;;;;5013654;28;20038;-51
2022/02/15 02:10:49;;;;;;;43.28;27.08;;;;;;;;;;5013464;28;20072;-51
2022/02/15 02:13:15;;;;;;;40.85;25.65;;;;;;;;;;5013256;28;20057;-51
2022/02/15 02:15:45;;;;;;;45.67;23.70;;;;;;;;;;5013431;28;20029;-51
2022/02/15 02:18:11;;;;;;;37.85;23.77;;;;;;;;;;5013398;28;20046;-50
2022/02/15 02:20:39;;;;;;;37.40;23.13;;;;;;;;;;5013289;28;20026;-51
2022/02/15 02:23:05;;;;;;;39.38;23.35;;;;;;;;;;5013417;28;20037;-50
2022/02/15 02:25:31;;;;;;;42.88;25.33;;;;;;;;;;5013438;28;20123;-52
2022/02/15 02:27:59;;;;;;;40.63;24.23;;;;;;;;;;5013395;28;20038;-51
2022/02/15 02:30:25;;;;;;;37.20;24.48;;;;;;;;;;5013322;28;20101;-52
2022/02/15 02:32:51;;;;;;;39.08;24.60;;;;;;;;;;5013328;28;20026;-51
2022/02/15 02:35:19;;;;;;;37.72;22.67;;;;;;;;;;5013125;28;20046;-50
2022/02/15 02:37:45;;;;;;;40.38;23.63;;;;;;;;;;5013279;28;20026;-51
2022/02/15 02:40:12;;;;;;;43.75;26.13;;;;;;;;;;5013211;28;20035;-50
2022/02/15 02:42:39;;;;;;;42.13;24.95;;;;;;;;;;5013298;28;20049;-52
2022/02/15 02:45:11;;;;;;;40.85;23.52;;;;;;;;;;5013138;28;20441;-51
2022/02/15 02:47:38;;;;;;;40.28;25.55;;;;;;;;;;5013135;28;20145;-51
2022/02/15 02:50:05;;;;;;;41.47;23.48;;;;;;;;;;5013245;28;20029;-52
2022/02/15 02:52:31;;;;;;;41.42;24.13;;;;;;;;;;5013145;28;20068;-51
2022/02/15 02:54:57;;;;;;;44.72;26.52;;;;;;;;;;5013526;28;20022;-49
2022/02/15 02:57:24;;;;;;;38.13;22.92;;;;;;;;;;5013221;28;20022;-53
2022/02/15 02:59:50;;;;;;;41.60;23.45;;;;;;;;;;5012938;28;20022;-52
2022/02/15 03:02:16;;;;;;;45.75;23.98;;;;;;;;;;5013057;28;20022;-53
2022/02/15 03:04:43;;;;;;;40.90;24.05;;;;;;;;;;5013277;28;20030;-53
2022/02/15 03:07:10;;;;;;;38.03;23.10;;;;;;;;;;5013021;28;20026;-51
2022/02/15 03:09:36;;;;;;;42.05;26.02;;;;;;;;;;5013035;28;20034;-52
2022/02/15 03:12:03;;;;;;;41.83;24.08;;;;;;;;;;5012862;28;20523;-49
2022/02/15 03:14:29;;;;;;;40.55;23.80;;;;;;;;;;5012837;28;20410;-52
2022/02/15 03:16:56;;;;;;;38.70;23.55;;;;;;;;;;5012980;28;20025;-52
2022/02/15 03:19:22;;;;;;;40.90;22.65;;;;;;;;;;5012797;28;20030;-52
2022/02/15 03:21:48;;;;;;;45.75;25.35;;;;;;;;;;5012823;28;20100;-52
2022/02/15 03:24:17;;;;;;;40.75;24.33;;;;;;;;;;5012750;28;20072;-51
2022/02/15 03:26:44;;;;;;;35.67;21.20;;;;;;;;;;5016550;28;20058;-51
2022/02/15 03:29:11;;;;;;;41.53;23.65;;;;;;;;;;5016503;28;20042;-50
2022/02/15 03:31:37;;;;;;;36.53;23.67;;;;;;;;;;5016356;28;20100;-51
2022/02/15 03:34:03;;;;;;;41.63;24.45;;;;;;;;;;5016126;28;20029;-51
2022/02/15 03:36:29;;;;;;;38.83;23.48;;;;;;;;;;4995131;28;20042;-51
2022/02/15 03:38:56;;;;;;;40.50;22.00;;;;;;;;;;4996515;28;20101;-51
2022/02/15 03:44:06;;;;;;;40.35;21.95;;;;;;;;;;4996809;28;20037;-53
2022/02/15 03:46:32;;;;;;;39.35;23.17;;;;;;;;;;4996582;28;20415;-50
2022/02/15 03:48:58;;;;;;;40.28;23.48;;;;;;;;;;4996407;28;20081;-50
2022/02/15 03:51:25;;;;;;;38.95;22.67;;;;;;;;;;4996336;28;20019;-50
2022/02/15 03:53:51;;;;;;;37.42;22.45;;;;;;;;;;4996432;28;20035;-51
2022/02/15 03:56:17;;;;;;;35.33;23.02;;;;;;;;;;4996422;28;20027;-50
2022/02/15 03:58:43;;;;;;;41.00;24.40;;;;;;;;;;4996220;28;20110;-53
2022/02/15 04:01:09;;;;;;;39.35;23.90;;;;;;;;;;4996283;28;20030;-48
2022/02/15 04:03:38;;;;;;;43.05;25.40;;;;;;;;;;4996020;28;20557;-51
2022/02/15 04:06:04;;;;;;;34.08;21.45;;;;;;;;;;4994681;28;20494;-51
2022/02/15 04:08:30;;;;;;;39.55;23.45;;;;;;;;;;4996165;28;20042;-52
2022/02/15 04:10:56;;;;;;;36.17;22.35;;;;;;;;;;4994883;28;20426;-46
2022/02/15 04:13:22;;;;;;;36.17;20.98;;;;;;;;;;4996088;28;20034;-49
2022/02/15 04:15:48;;;;;;;40.72;24.08;;;;;;;;;;4996059;28;20026;-51
2022/02/15 04:18:14;;;;;;;32.28;20.00;;;;;;;;;;4996042;28;20058;-51
2022/02/15 04:20:40;;;;;;;35.08;20.45;;;;;;;;;;4995716;28;20473;-50
2022/02/15 04:23:08;;;;;;;36.22;21.33;;;;;;;;;;4995661;28;20054;-50
2022/02/15 04:25:34;;;;;;;41.97;21.17;;;;;;;;;;4995873;28;20039;-48
2022/02/15 04:28:01;;;;;;;38.63;21.33;;;;;;;;;;4995661;28;20427;-50
2022/02/15 04:30:27;;;;;;;47.55;23.77;;;;;;;;;;4995634;28;20475;-50
2022/02/15 04:32:53;;;;;;;46.63;24.48;;;;;;;;;;4995503;28;20023;-49
2022/02/15 04:35:19;;;;;;;52.38;25.35;;;;;;;;;;5003442;28;20503;-48
2022/02/15 04:37:45;;;;;;;43.47;22.70;;;;;;;;;;5013958;28;20034;-47
2022/02/15 04:40:11;;;;;;;49.17;23.70;;;;;;;;;;5014968;28;20466;-46
2022/02/15 04:42:40;;;;;;;49.13;22.92;;;;;;;;;;4997582;28;20072;-45
2022/02/15 04:45:06;;;;;;;46.22;23.70;;;;;;;;;;5015028;28;20018;-49
2022/02/15 04:47:35;;;;;;;49.08;24.70;;;;;;;;;;5014742;28;20466;-47
2022/02/15 04:50:01;;;;;;;44.67;24.65;;;;;;;;;;4997298;28;20057;-50
2022/02/15 04:52:27;;;;;;;46.97;23.17;;;;;;;;;;5014651;28;20467;-49
2022/02/15 04:54:53;;;;;;;45.72;23.42;;;;;;;;;;5014785;28;20036;-50
2022/02/15 04:57:19;;;;;;;43.72;23.48;;;;;;;;;;5015059;28;20022;-50
2022/02/15 04:59:45;;;;;;;45.58;24.08;;;;;;;;;;5015011;28;20018;-49
2022/02/15 05:02:12;;;;;;;46.10;24.15;;;;;;;;;;5014830;28;20108;-50
2022/02/15 05:04:50;;;;;;;58.53;28.73;;;;;;;;;;5014345;28;20418;-50
2022/02/15 05:07:17;;;;;;;48.88;24.67;;;;;;;;;;5014443;28;20038;-47
2022/02/15 05:09:46;;;;;;;50.10;25.23;;;;;;;;;;5014379;28;20061;-50
2022/02/15 05:12:12;;;;;;;39.78;22.45;;;;;;;;;;5014455;28;20109;-50
2022/02/15 05:14:38;;;;;;;37.38;20.98;;;;;;;;;;5014396;28;20133;-49
2022/02/15 05:17:05;;;;;;;36.25;19.92;;;;;;;;;;5014427;28;20022;-47
2022/02/15 05:19:31;;;;;;;43.22;22.45;;;;;;;;;;5014299;28;20061;-50
2022/02/15 05:22:01;;;;;;;44.35;23.95;;;;;;;;;;5014392;28;20068;-51
2022/02/15 05:24:27;;;;;;;36.97;20.73;;;;;;;;;;5014307;28;20033;-49
2022/02/15 05:26:54;;;;;;;35.30;20.40;;;;;;;;;;5014108;28;20097;-50
2022/02/15 05:29:20;;;;;;;33.58;19.77;;;;;;;;;;5014173;28;20034;-51
2022/02/15 05:31:49;;;;;;;39.22;21.65;;;;;;;;;;5014166;28;20018;-50
2022/02/15 05:34:15;;;;;;;35.42;22.02;;;;;;;;;;5014329;28;20102;-50
2022/02/15 05:36:41;;;;;;;39.65;21.92;;;;;;;;;;5013938;28;20046;-50
2022/02/15 05:39:08;;;;;;;40.35;22.08;;;;;;;;;;5013966;28;20041;-50
2022/02/15 05:41:34;;;;;;;38.47;22.23;;;;;;;;;;5014054;28;20018;-49
2022/02/15 05:44:00;;;;;;;37.85;21.90;;;;;;;;;;5014012;28;20088;-50
2022/02/15 05:46:26;;;;;;;40.17;24.00;;;;;;;;;;5013887;28;20459;-51
2022/02/15 05:48:55;;;;;;;39.70;23.38;;;;;;;;;;5013219;28;20038;-49
2022/02/15 05:51:24;;;;;;;35.90;21.50;;;;;;;;;;5013681;28;20148;-52
2022/02/15 05:53:52;;;;;;;35.83;21.92;;;;;;;;;;5014025;28;20435;-51
2022/02/15 05:56:22;;;;;;;36.78;22.60;;;;;;;;;;5013633;28;20030;-51
2022/02/15 05:58:53;;;;;;;35.50;21.05;;;;;;;;;;5013918;28;20057;-51
2022/02/15 06:01:19;;;;;;;39.53;25.08;;;;;;;;;;5013704;28;20025;-50
2022/02/15 06:06:30;;;;;;;40.03;22.80;;;;;;;;;;5013896;28;20109;-52
2022/02/15 06:08:58;;;;;;;36.42;22.35;;;;;;;;;;5013634;28;20084;-50
2022/02/15 06:11:24;;;;;;;37.17;23.25;;;;;;;;;;5013793;28;20022;-51
2022/02/15 06:13:53;;;;;;;38.22;22.98;;;;;;;;;;5013801;28;20080;-51
2022/02/15 06:16:22;;;;;;;40.83;23.35;;;;;;;;;;5013493;28;20049;-49
2022/02/15 06:18:50;;;;;;;41.00;22.35;;;;;;;;;;5013581;28;20025;-52
2022/02/15 06:21:17;;;;;;;37.08;21.63;;;;;;;;;;5013368;28;20022;-51
2022/02/15 06:23:43;;;;;;;34.08;21.85;;;;;;;;;;5013485;28;20029;-51
2022/02/15 06:26:10;;;;;;;39.45;22.23;;;;;;;;;;5013822;28;20438;-49
2022/02/15 06:28:36;;;;;;;37.85;21.95;;;;;;;;;;5013503;28;20033;-51
2022/02/15 06:31:02;;;;;;;41.35;22.75;;;;;;;;;;5013812;28;20029;-51
2022/02/15 06:33:28;;;;;;;40.13;24.27;;;;;;;;;;5013187;28;20108;-50
2022/02/15 06:35:54;;;;;;;37.53;22.65;;;;;;;;;;5013139;28;20115;-51
2022/02/15 06:38:20;;;;;;;38.60;21.15;;;;;;;;;;5013348;28;20029;-49
2022/02/15 06:40:46;;;;;;;40.63;21.58;;;;;;;;;;5013381;28;20033;-48
2022/02/15 06:43:12;;;;;;;31.90;19.15;;;;;;;;;;5013454;28;20038;-52
2022/02/15 06:45:39;;;;;;;32.60;19.67;;;;;;;;;;5013181;28;20022;-51
2022/02/15 06:48:05;;;;;;;40.13;23.25;;;;;;;;;;5012894;28;20457;-49
2022/02/15 06:50:32;;;;;;;32.97;20.50;;;;;;;;;;5013125;28;20026;-50
2022/02/15 06:52:58;;;;;;;40.38;22.77;;;;;;;;;;5013205;28;20030;-51
2022/02/15 06:55:24;;;;;;;46.70;23.65;;;;;;;;;;5013206;28;20560;-50
2022/02/15 06:57:50;;;;;;;52.17;25.20;;;;;;;;;;5013211;28;20382;-51
2022/02/15 07:00:20;;;;;;;44.03;23.73;;;;;;;;;;4997244;28;20044;-50
2022/02/15 07:02:46;;;;;;;39.58;22.17;;;;;;;;;;5016685;28;20049;-49
2022/02/15 07:05:15;;;;;;;33.72;19.98;;;;;;;;;;5017211;28;20030;-50
2022/02/15 07:07:44;;;;;;;30.52;19.58;;;;;;;;;;5016814;28;20109;-52
2022/02/15 07:10:10;;;;;;;73.90;43.60;;;;;;;;;;5016993;28;20038;-53
2022/02/15 07:12:36;;;;;;;34.38;21.17;;;;;;;;;;5016655;28;20533;-55
2022/02/15 07:15:03;;;;;;;63.53;34.45;;;;;;;;;;5016865;28;20474;-51
2022/02/15 07:17:29;;;;;;;32.42;19.20;;;;;;;;;;5016569;28;20030;-52
2022/02/15 07:19:55;;;;;;;73.70;42.83;;;;;;;;;;5016621;28;20080;-50
2022/02/15 07:22:21;;;;;;;49.70;28.85;;;;;;;;;;5016667;28;20169;-51
2022/02/15 07:24:47;;;;;;;38.60;23.17;;;;;;;;;;5016409;28;20030;-51
2022/02/15 07:27:13;;;;;;;43.67;24.80;;;;;;;;;;5016524;28;20069;-49
2022/02/15 07:29:40;;;;;;;39.05;24.02;;;;;;;;;;5016289;28;20038;-52
2022/02/15 07:32:07;;;;;;;45.83;27.77;;;;;;;;;;5016101;28;20544;-51
2022/02/15 07:34:33;;;;;;;32.00;19.63;;;;;;;;;;5016326;28;20462;-52
2022/02/15 07:37:01;;;;;;;32.97;20.90;;;;;;;;;;5016368;28;20030;-55
2022/02/15 07:39:27;;;;;;;36.03;21.95;;;;;;;;;;4998689;28;20056;-53
2022/02/15 07:41:53;;;;;;;30.83;18.45;;;;;;;;;;5016180;28;20072;-53
2022/02/15 07:44:19;;;;;;;43.45;21.15;;;;;;;;;;5016223;28;20105;-52
2022/02/15 07:46:47;;;;;;;39.10;22.63;;;;;;;;;;5015965;28;20466;-51
2022/02/15 07:49:14;;;;;;;44.65;24.67;;;;;;;;;;5015905;28;20045;-52
2022/02/15 07:51:40;;;;;;;58.03;28.98;;;;;;;;;;4998356;28;20030;-52
2022/02/15 07:54:07;;;;;;;56.35;30.02;;;;;;;;;;4998387;28;20033;-52
2022/02/15 07:56:33;;;;;;;54.58;29.10;;;;;;;;;;5015823;28;20018;-52
2022/02/15 07:58:59;;;;;;;41.08;24.08;;;;;;;;;;5016007;28;20073;-51
2022/02/15 08:01:25;;;;;;;38.20;24.40;;;;;;;;;;5015956;28;20037;-52
2022/02/15 08:03:53;;;;;;;35.55;22.42;;;;;;;;;;5015537;28;20037;-50
2022/02/15 08:06:19;;;;;;;33.97;22.17;;;;;;;;;;5015749;28;20466;-52
2022/02/15 08:08:45;;;;;;;36.05;20.88;;;;;;;;;;5015939;28;20244;-51
2022/02/15 08:11:11;;;;;;;39.47;23.33;;;;;;;;;;5015215;28;20026;-51
2022/02/15 08:13:40;;;;;;;42.17;24.98;;;;;;;;;;4997993;28;20036;-52
2022/02/15 08:16:06;;;;;;;45.42;25.83;;;;;;;;;;5015327;28;20474;-53
2022/02/15 08:18:40;;;;;;;36.85;23.15;;;;;;;;;;5015222;28;20038;-52
2022/02/15 08:21:08;;;;;;;36.95;22.08;;;;;;;;;;5015309;28;20041;-52
2022/02/15 08:23:34;;;;;;;40.78;24.05;;;;;;;;;;5015417;28;20077;-51
2022/02/15 08:26:02;;;;;;;45.83;25.60;;;;;;;;;;5015416;28;20033;-49
2022/02/15 08:28:28;;;;;;;67.13;26.60;;;;;;;;;;5015135;28;20152;-51
2022/02/15 08:30:57;;;;;;;51.22;27.05;;;;;;;;;;5015067;28;20037;-47
2022/02/15 08:33:27;;;;;;;42.55;24.67;;;;;;;;;;5015071;28;20025;-47
2022/02/15 08:35:53;;;;;;;39.60;24.25;;;;;;;;;;5015017;28;20057;-50
2022/02/15 08:38:20;;;;;;;38.45;21.00;;;;;;;;;;5015115;28;20101;-47
2022/02/15 08:40:46;;;;;;;43.17;23.15;;;;;;;;;;5014959;28;20028;-49
2022/02/15 08:43:14;;;;;;;54.17;31.38;;;;;;;;;;5014940;28;20415;-50
2022/02/15 08:45:42;;;;;;;49.63;25.88;;;;;;;;;;5015122;28;20153;-46
2022/02/15 08:48:08;;;;;;;46.30;24.83;;;;;;;;;;5014663;28;20033;-48
2022/02/15 08:50:35;;;;;;;43.65;23.00;;;;;;;;;;5014724;28;20044;-48
2022/02/15 08:53:01;;;;;;;35.80;21.70;;;;;;;;;;5014719;28;20022;-50
2022/02/15 08:55:27;;;;;;;39.65;23.05;;;;;;;;;;5015047;28;20037;-48
2022/02/15 08:57:53;;;;;;;40.70;23.23;;;;;;;;;;5015086;28;20018;-47
2022/02/15 09:00:19;;;;;;;29.58;18.65;;;;;;;;;;5014611;28;20060;-44
2022/02/15 09:02:45;;;;;;;33.15;19.27;;;;;;;;;;5014580;28;20536;-47
2022/02/15 09:05:12;;;;;;;36.03;21.67;;;;;;;;;;5014727;28;20025;-49
2022/02/15 09:07:38;;;;;;;34.60;21.80;;;;;;;;;;5014665;28;20058;-47
2022/02/15 09:10:05;;;;;;;36.95;22.85;;;;;;;;;;5014540;28;20026;-47
2022/02/15 09:12:31;;;;;;;26.55;15.32;;;;;;;;;;5014413;28;20053;-48
2022/02/15 09:14:57;;;;;;;31.90;20.50;;;;;;;;;;5014262;28;20030;-48
2022/02/15 09:17:23;;;;;;;34.15;18.02;;;;;;;;;;5014262;28;20029;-45
2022/02/15 09:19:49;;;;;;;22.67;14.18;;;;;;;;;;5014175;28;20022;-46
2022/02/15 09:22:17;;;;;;;21.63;13.57;;;;;;;;;;5013663;28;20414;-46
2022/02/15 09:24:43;;;;;;;37.72;20.83;;;;;;;;;;5014328;28;20022;-46
2022/02/15 09:27:09;;;;;;;29.70;18.33;;;;;;;;;;5014152;28;20109;-48
2022/02/15 09:29:38;;;;;;;24.88;13.75;;;;;;;;;;5013934;28;20486;-45
2022/02/15 09:32:04;;;;;;;24.65;15.43;;;;;;;;;;5014250;28;20030;-51
2022/02/15 09:34:34;;;;;;;30.15;17.75;;;;;;;;;;5013801;28;20072;-47
2022/02/15 09:37:01;;;;;;;30.42;15.38;;;;;;;;;;5014131;28;20117;-47
2022/02/15 09:39:27;;;;;;;14.77;9.13;;;;;;;;;;5013994;28;20469;-47
2022/02/15 09:41:53;;;;;;;18.83;10.43;;;;;;;;;;4995977;28;20370;-51
2022/02/15 09:44:20;;;;;;;20.65;10.70;;;;;;;;;;5013835;28;20076;-48
2022/02/15 09:46:47;;;;;;;21.48;10.93;;;;;;;;;;5014085;28;20072;-46
2022/02/15 09:51:59;;;;;;;14.88;9.05;;;;;;;;;;5022092;28;20531;-47
2022/02/15 09:54:27;;;;;;;18.70;10.88;;;;;;;;;;5024034;28;20021;-50
2022/02/15 09:56:53;;;;;;;23.58;13.32;;;;;;;;;;5018700;28;20109;-48
2022/02/15 09:59:19;;;;;;;10.15;6.00;;;;;;;;;;5018793;28;20022;-47
2022/02/15 10:01:47;;;;;;;9.05;5.45;;;;;;;;;;5013864;28;20047;-49
2022/02/15 10:04:13;;;;;;;11.75;5.70;;;;;;;;;;5000983;28;20523;-47
2022/02/15 10:06:42;;;;;;;11.23;4.93;;;;;;;;;;5023806;28;20123;-51
2022/02/15 10:09:08;;;;;;;10.02;5.13;;;;;;;;;;5020096;28;20026;-47
2022/02/15 10:11:38;;;;;;;11.20;5.60;;;;;;;;;;5022829;28;20022;-51
2022/02/15 10:14:04;;;;;;;11.02;6.22;;;;;;;;;;5023896;28;20458;-51
2022/02/15 10:16:31;;;;;;;10.30;5.32;;;;;;;;;;5022443;28;20029;-53
2022/02/15 10:19:02;;;;;;;10.20;5.18;;;;;;;;;;5022263;28;20504;-53
2022/02/15 10:21:28;;;;;;;;;;;;;;;;;;5020610;28;20057;-51
2022/02/15 10:23:56;;;;;;;10.07;3.65;;;;;;;;;;5022774;28;19912;-53
2022/02/15 10:26:25;;;;;;;9.32;3.30;;;;;;;;;;5023466;28;20488;-57
2022/02/15 10:28:52;;;;;;;9.93;4.10;;;;;;;;;;5022539;28;20026;-58
2022/02/15 10:31:18;;;;;;;10.77;4.10;;;;;;;;;;5022297;28;20359;-54
2022/02/15 10:33:50;;;;;;;10.90;4.88;;;;;;;;;;5024893;28;20108;-56
2022/02/15 10:36:16;;;;;;;13.90;5.60;;;;;;;;;;5010807;28;20096;-54
2022/02/15 10:38:50;;;;;;;21.52;8.25;;;;;;;;;;5007883;28;20018;-54
2022/02/15 10:41:21;;;;;;;8.60;3.45;;;;;;;;;;5002670;28;20096;-54
2022/02/15 10:43:56;;;;;;;7.03;3.55;;;;;;;;;;4997784;28;20030;-55
2022/02/15 10:46:28;;;;;;;6.07;3.30;;;;;;;;;;4997973;28;20148;-52
2022/02/15 10:48:54;;;;;;;;;;;;;;;;;;4998113;28;20022;-50
2022/02/15 10:51:22;;;;;;;15.90;8.30;;;;;;;;;;5000370;28;20434;-53
2022/02/15 10:53:48;;;;;;;6.18;3.78;;;;;;;;;;4997658;28;20046;-52
2022/02/15 10:56:15;;;;;;;10.65;5.82;;;;;;;;;;4997784;28;20061;-55
2022/02/15 10:58:43;;;;;;;9.55;4.78;;;;;;;;;;4997776;28;20022;-52
2022/02/15 11:01:10;;;;;;;4.70;1.63;;;;;;;;;;5004891;28;20029;-53
2022/02/15 11:03:39;;;;;;;9.13;4.35;;;;;;;;;;5005918;28;20030;-54
2022/02/15 11:06:06;;;;;;;6.53;3.33;;;;;;;;;;5006791;28;20105;-54
2022/02/15 11:08:35;;;;;;;7.97;2.40;;;;;;;;;;5007764;28;20120;-51
2022/02/15 11:11:18;;;;;;;6.85;3.42;;;;;;;;;;5006233;28;20046;-54
2022/02/15 11:13:45;;;;;;;8.55;3.17;;;;;;;;;;5004843;28;20101;-57
2022/02/15 11:16:14;;;;;;;7.53;2.80;;;;;;;;;;5005714;28;20105;-51
2022/02/15 11:18:40;;;;;;;21.25;13.32;;;;;;;;;;5007592;28;20621;-50
2022/02/15 11:21:08;;;;;;;4.47;2.25;;;;;;;;;;5006687;28;20475;-48
2022/02/15 11:23:36;;;;;;;10.23;3.60;;;;;;;;;;5005518;28;20101;-51
2022/02/15 11:26:03;;;;;;;8.18;3.90;;;;;;;;;;5006999;28;20047;-51
2022/02/15 11:28:29;;;;;;;6.13;2.97;;;;;;;;;;5007022;28;20029;-50
2022/02/15 11:30:56;;;;;;;3.97;1.92;;;;;;;;;;5005189;28;20088;-51
2022/02/15 11:33:24;;;;;;;6.38;2.20;;;;;;;;;;5006988;28;20093;-53
2022/02/15 11:35:56;;;;;;;8.35;2.10;;;;;;;;;;5001375;28;20085;-50
2022/02/15 11:38:24;;;;;;;5.72;2.08;;;;;;;;;;4967725;28;20121;-51
2022/02/15 11:41:19;;;;;;;5.35;2.28;;;;;;;;;;4966630;28;20049;-51
2022/02/15 11:44:06;;;;;;;4.53;2.25;;;;;;;;;;4966359;28;20043;-54
2022/02/15 11:46:37;;;;;;;3.53;1.80;;;;;;;;;;4965773;28;20406;-53
2022/02/15 11:49:09;;;;;;;4.88;2.15;;;;;;;;;;4978586;28;20022;-54
2022/02/15 11:51:36;;;;;;;5.68;2.65;;;;;;;;;;4996734;28;20382;-54
2022/02/15 11:54:03;;;;;;;8.48;2.92;;;;;;;;;;4996913;28;20025;-53
2022/02/15 11:56:30;;;;;;;6.53;2.90;;;;;;;;;;4996622;28;20030;-52
2022/02/15 11:58:59;;;;;;;5.43;2.38;;;;;;;;;;4996654;28;20023;-53
2022/02/15 12:01:25;;;;;;;6.22;2.33;;;;;;;;;;4996303;28;20023;-54
2022/02/15 12:03:52;;;;;;;5.85;2.20;;;;;;;;;;4996438;28;20033;-54
2022/02/15 12:06:18;;;;;;;7.68;2.88;;;;;;;;;;4996268;28;20031;-54
2022/02/15 12:08:57;;;;;;;5.88;2.10;;;;;;;;;;4996347;28;20419;-54
2022/02/15 12:11:30;;;;;;;6.35;2.90;;;;;;;;;;4996365;28;20390;-53
2022/02/15 12:13:56;;;;;;;4.53;2.47;;;;;;;;;;4996484;28;20019;-54
2022/02/15 12:16:23;;;;;;;10.85;2.78;;;;;;;;;;4996286;28;20093;-53
2022/02/15 12:18:49;;;;;;;7.57;1.92;;;;;;;;;;4996390;28;20038;-55
2022/02/15 12:21:16;;;;;;;8.27;3.75;;;;;;;;;;4996148;28;20053;-55
2022/02/15 12:23:43;;;;;;;9.73;4.15;;;;;;;;;;4995939;28;20065;-54
2022/02/15 12:26:09;;;;;;;12.73;6.43;;;;;;;;;;4995592;28;20027;-56
2022/02/15 12:28:35;;;;;;;24.20;12.95;;;;;;;;;;4995734;28;20105;-56
2022/02/15 12:31:01;;;;;;;8.55;4.07;;;;;;;;;;4995396;28;20486;-54
2022/02/15 12:33:36;;;;;;;17.23;8.50;;;;;;;;;;4995547;28;20076;-51
2022/02/15 12:36:05;;;;;;;8.35;4.50;;;;;;;;;;4995178;28;20058;-53
2022/02/15 12:38:39;;;;;;;10.52;3.67;;;;;;;;;;4995772;28;20355;-55
2022/02/15 12:41:18;;;;;;;4.65;2.45;;;;;;;;;;4995662;28;20033;-52
2022/02/15 12:43:44;;;;;;;15.27;6.80;;;;;;;;;;4995808;28;20037;-53
2022/02/15 12:46:10;;;;;;;8.60;4.60;;;;;;;;;;4994022;28;20043;-54
2022/02/15 12:48:36;;;;;;;8.80;3.42;;;;;;;;;;4995618;28;20034;-52
2022/02/15 12:51:03;;;;;;;9.85;3.08;;;;;;;;;;4995367;28;20173;-53
2022/02/15 12:53:29;;;;;;;6.40;3.10;;;;;;;;;;4995271;28;20113;-54
2022/02/15 12:55:55;;;;;;;6.75;2.55;;;;;;;;;;4995492;28;20029;-55
2022/02/15 12:58:21;;;;;;;5.60;2.50;;;;;;;;;;4994432;28;20440;-53
2022/02/15 13:00:48;;;;;;;8.43;4.32;;;;;;;;;;4995454;28;20027;-54
2022/02/15 13:03:20;;;;;;;9.50;5.72;;;;;;;;;;4995202;28;20027;-54
2022/02/15 13:05:46;;;;;;;9.43;3.60;;;;;;;;;;4995422;28;20034;-54
2022/02/15 13:08:17;;;;;;;8.75;3.08;;;;;;;;;;4994967;28;20450;-53
2022/02/15 13:10:43;;;;;;;7.70;3.15;;;;;;;;;;4995165;28;20057;-54
2022/02/15 13:13:10;;;;;;;8.77;4.20;;;;;;;;;;4995200;28;20387;-54
2022/02/15 13:15:36;;;;;;;6.10;3.63;;;;;;;;;;4994926;28;20030;-54
2022/02/15 13:18:12;;;;;;;10.43;4.03;;;;;;;;;;4995069;28;20045;-55
2022/02/15 13:20:39;;;;;;;12.02;6.80;;;;;;;;;;4994900;28;20045;-58
2022/02/15 13:23:06;;;;;;;10.90;5.13;;;;;;;;;;4994886;28;20029;-57
2022/02/15 13:25:38;;;;;;;6.15;3.33;;;;;;;;;;4995239;28;20034;-56
2022/02/15 13:28:04;;;;;;;15.00;6.30;;;;;;;;;;4994903;28;20026;-54
2022/02/15 13:30:32;;;;;;;12.38;5.20;;;;;;;;;;4995273;28;20042;-59
2022/02/15 13:33:08;;;;;;;22.73;12.07;;;;;;;;;;4985849;28;20033;-59
2022/02/15 13:35:38;;;;;;;8.25;4.05;;;;;;;;;;4965903;28;20058;-60
2022/02/15 13:38:08;;;;;;;11.60;5.90;;;;;;;;;;4966540;28;20041;-56
2022/02/15 13:40:35;;;;;;;14.60;6.88;;;;;;;;;;4966625;28;20066;-61
2022/02/15 13:43:01;;;;;;;8.45;3.42;;;;;;;;;;4966783;28;20081;-54
2022/02/15 13:45:27;;;;;;;9.80;4.60;;;;;;;;;;4966532;28;20026;-53
2022/02/15 13:47:54;;;;;;;11.52;4.20;;;;;;;;;;4966931;28;20088;-59
2022/02/15 13:50:20;;;;;;;10.48;4.90;;;;;;;;;;4965896;28;20814;-54
2022/02/15 13:52:47;;;;;;;15.48;5.97;;;;;;;;;;4966653;28;20030;-54
2022/02/15 13:55:13;;;;;;;8.75;3.60;;;;;;;;;;4966289;28;20045;-55
2022/02/15 13:57:40;;;;;;;10.60;4.20;;;;;;;;;;4966274;28;20411;-55
2022/02/15 14:00:07;;;;;;;11.70;7.32;;;;;;;;;;4966090;28;20302;-55
2022/02/15 14:02:38;;;;;;;7.90;3.50;;;;;;;;;;4966100;28;20049;-58
2022/02/15 14:05:11;;;;;;;10.55;4.90;;;;;;;;;;4965398;28;20487;-55
2022/02/15 14:07:38;;;;;;;12.55;4.05;;;;;;;;;;4966206;28;20034;-57
2022/02/15 14:10:05;;;;;;;9.98;4.97;;;;;;;;;;4965737;28;20800;-52
2022/02/15 14:12:37;;;;;;;7.90;3.88;;;;;;;;;;4965838;28;20022;-57
2022/02/15 14:15:06;;;;;;;14.43;5.35;;;;;;;;;;4966102;28;20209;-51
2022/02/15 14:17:41;;;;;;;8.18;3.78;;;;;;;;;;4965751;28;20023;-59
2022/02/15 14:20:08;;;;;;;13.23;5.80;;;;;;;;;;4965636;28;20031;-54
2022/02/15 14:22:34;;;;;;;9.57;5.10;;;;;;;;;;4965830;28;20054;-54
2022/02/15 14:25:01;;;;;;;10.88;6.28;;;;;;;;;;4966029;28;20023;-61
2022/02/15 14:27:27;;;;;;;11.73;4.63;;;;;;;;;;4966418;28;20026;-55
2022/02/15 14:29:53;;;;;;;18.70;7.47;;;;;;;;;;4965763;28;20121;-55
2022/02/15 14:32:19;;;;;;;16.20;7.32;;;;;;;;;;4966079;28;20106;-54